Ashaiiu, Virginia
Current Conditions -  °F | °C
As of 12:54 PM on Monday 24 Nov 2014 (Local Time) from KOFP Reporting Station
Clear Clear  
Wind Chill: 23°   Ceiling: Unl
Heat Index: 23°   Visibility: 10mi
Dew Point: 12°   Wind: 17mph
Humidity: 51%   Direction: 190°S
Pressure: 29.7"   Gusts: 29mph
Location:  37.7534°N, 77.495°W
Report Text: KOFP 241754Z AUTO 19015G25KT 10SM CLR 23/12 A2970 RMK AO2 PK WND 19026/1743 SLP057 T02280122 10228 20178 58020
Loading
Personal Weather Stations






























Interactive Weather Map New forecast layout! Learn more

10-Day Weather Forecast

Advertisements
Track Severe Weather on mobile